createdAt,value
2019-03-24T00:00:58.633Z,21.60
2019-03-24T00:03:33.257Z,21.70
2019-03-24T00:06:08.388Z,21.60
2019-03-24T00:08:43.300Z,21.30
2019-03-24T00:11:18.560Z,21.20
2019-03-24T00:13:53.491Z,21.00
2019-03-24T00:16:28.407Z,20.50
2019-03-24T00:19:02.606Z,20.40
2019-03-24T00:21:37.228Z,20.20
2019-03-24T00:24:11.370Z,20.20
2019-03-24T00:26:45.478Z,20.40
2019-03-24T00:29:20.529Z,20.60
2019-03-24T00:31:55.359Z,20.60
2019-03-24T00:34:29.863Z,20.60
2019-03-24T00:37:04.908Z,20.80
2019-03-24T00:39:39.979Z,20.80
2019-03-24T00:42:14.354Z,20.80
2019-03-24T00:44:49.404Z,20.70
2019-03-24T00:47:24.441Z,20.50
2019-03-24T00:49:58.843Z,20.40
2019-03-24T00:52:33.520Z,20.50
2019-03-24T00:55:08.223Z,20.50
2019-03-24T00:57:43.895Z,20.40
2019-03-24T01:00:21.058Z,20.30
2019-03-24T01:02:55.984Z,20.20
2019-03-24T01:05:30.819Z,20.20
2019-03-24T01:08:05.935Z,20.10
2019-03-24T01:10:40.871Z,20.00
2019-03-24T01:13:16.756Z,19.90
2019-03-24T01:15:51.377Z,19.80
2019-03-24T01:18:25.793Z,19.70
2019-03-24T01:21:00.952Z,19.70
2019-03-24T01:23:35.968Z,19.40
2019-03-24T01:26:10.672Z,19.20
2019-03-24T01:28:45.217Z,19.10
2019-03-24T01:31:19.807Z,19.10
2019-03-24T01:33:54.753Z,19.30
2019-03-24T01:36:29.808Z,19.30
2019-03-24T01:39:05.401Z,19.40
2019-03-24T01:41:40.716Z,19.40
2019-03-24T01:44:15.453Z,19.00
2019-03-24T01:46:50.437Z,18.90
2019-03-24T01:49:25.050Z,18.70
2019-03-24T01:52:00.021Z,18.70
2019-03-24T01:54:34.163Z,18.70
2019-03-24T01:57:09.134Z,18.70
2019-03-24T01:59:44.097Z,18.60
2019-03-24T02:02:18.307Z,18.70
2019-03-24T02:04:53.239Z,18.80
2019-03-24T02:07:28.268Z,18.60
2019-03-24T02:10:02.371Z,18.60
2019-03-24T02:12:37.131Z,18.80
2019-03-24T02:15:12.144Z,18.70
2019-03-24T02:17:46.677Z,18.70
2019-03-24T02:20:21.804Z,18.70
2019-03-24T02:22:56.859Z,18.70
2019-03-24T02:25:32.197Z,18.40
2019-03-24T02:28:06.724Z,18.30
2019-03-24T02:30:41.252Z,18.20
2019-03-24T02:33:15.720Z,18.10
2019-03-24T02:35:50.371Z,18.10
2019-03-24T02:38:24.694Z,18.00
2019-03-24T02:40:59.955Z,18.10
2019-03-24T02:43:34.328Z,18.20
2019-03-24T02:46:08.504Z,18.30
2019-03-24T02:48:44.069Z,18.40
2019-03-24T02:51:19.095Z,18.50
2019-03-24T02:53:54.104Z,18.40
2019-03-24T02:56:28.651Z,18.30
2019-03-24T02:59:03.177Z,18.30
2019-03-24T03:01:37.746Z,18.40
2019-03-24T03:04:12.389Z,18.60
2019-03-24T03:06:46.987Z,18.80
2019-03-24T03:09:21.302Z,18.90
2019-03-24T03:11:56.488Z,19.00
2019-03-24T03:14:31.609Z,19.00
2019-03-24T03:17:06.772Z,18.80
2019-03-24T03:19:41.703Z,18.70
2019-03-24T03:22:16.608Z,18.80
2019-03-24T03:24:51.661Z,18.90
2019-03-24T03:27:26.679Z,18.90
2019-03-24T03:30:01.015Z,19.10
2019-03-24T03:32:36.158Z,19.20
2019-03-24T03:35:12.535Z,19.20
2019-03-24T03:37:47.594Z,19.20
2019-03-24T03:40:22.113Z,19.30
2019-03-24T03:42:57.347Z,19.20
2019-03-24T03:45:32.772Z,19.30
2019-03-24T03:48:07.289Z,19.30
2019-03-24T03:50:42.238Z,19.40
2019-03-24T03:53:17.163Z,19.40
2019-03-24T03:55:51.760Z,19.50
2019-03-24T03:58:25.901Z,19.50
2019-03-24T04:01:01.038Z,19.60
2019-03-24T04:03:35.987Z,19.70
2019-03-24T04:06:10.974Z,19.80
2019-03-24T04:08:45.648Z,19.80
2019-03-24T04:11:20.789Z,19.90
2019-03-24T04:13:55.698Z,19.80
2019-03-24T04:16:30.242Z,19.60
2019-03-24T04:19:04.265Z,19.50
2019-03-24T04:21:39.241Z,19.50
2019-03-24T04:24:14.200Z,19.40
2019-03-24T04:26:49.703Z,19.50
2019-03-24T04:29:24.408Z,19.60
2019-03-24T04:31:59.041Z,19.60
2019-03-24T04:34:33.852Z,19.60
2019-03-24T04:37:08.658Z,19.60
2019-03-24T04:39:43.695Z,19.50
2019-03-24T04:42:18.732Z,19.60
2019-03-24T04:44:53.350Z,19.50
2019-03-24T04:47:28.164Z,19.40
2019-03-24T04:50:03.196Z,19.40
2019-03-24T04:52:40.504Z,19.20
2019-03-24T04:55:15.192Z,19.10
2019-03-24T04:57:50.364Z,19.00
2019-03-24T05:00:37.319Z,19.20
2019-03-24T05:03:11.841Z,19.20
2019-03-24T05:05:47.287Z,19.20
2019-03-24T05:08:22.475Z,19.10
2019-03-24T05:10:57.559Z,19.00
2019-03-24T05:13:32.048Z,19.10
2019-03-24T05:16:06.986Z,19.20
2019-03-24T05:18:41.915Z,19.10
2019-03-24T05:21:16.663Z,19.00
2019-03-24T05:23:51.100Z,19.00
2019-03-24T05:26:25.446Z,19.00
2019-03-24T05:29:00.500Z,18.80
2019-03-24T05:31:35.352Z,18.50
2019-03-24T05:34:10.807Z,18.60
2019-03-24T05:36:47.031Z,18.70
2019-03-24T05:39:21.603Z,18.90
2019-03-24T05:41:56.567Z,18.80
2019-03-24T05:44:31.278Z,18.80
2019-03-24T05:47:06.395Z,19.00
2019-03-24T05:49:40.721Z,19.00
2019-03-24T05:52:15.621Z,19.10
2019-03-24T05:54:50.116Z,19.10
2019-03-24T05:57:24.674Z,19.10
2019-03-24T05:59:59.017Z,19.10
2019-03-24T06:02:33.937Z,19.20
2019-03-24T06:05:08.770Z,19.30
2019-03-24T06:07:44.399Z,19.40
2019-03-24T06:10:19.554Z,19.40
2019-03-24T06:12:53.971Z,19.30
2019-03-24T06:15:29.013Z,19.20
2019-03-24T06:18:04.071Z,19.20
2019-03-24T06:20:39.571Z,19.10
2019-03-24T06:23:14.521Z,19.00
2019-03-24T06:25:49.059Z,18.90
2019-03-24T06:28:23.956Z,18.80
2019-03-24T06:30:58.092Z,18.80
2019-03-24T06:33:32.232Z,18.70
2019-03-24T06:36:06.279Z,18.70
2019-03-24T06:38:41.490Z,18.70
2019-03-24T06:41:15.600Z,18.70
2019-03-24T06:43:50.098Z,18.70
2019-03-24T06:46:24.623Z,18.60
2019-03-24T06:49:00.140Z,18.40
2019-03-24T06:51:36.152Z,18.30
2019-03-24T06:54:11.494Z,18.20
2019-03-24T06:56:46.711Z,18.20
2019-03-24T06:59:21.442Z,18.20
2019-03-24T07:01:56.470Z,18.20
2019-03-24T07:04:30.897Z,18.20
2019-03-24T07:07:06.588Z,18.20
2019-03-24T07:09:41.252Z,18.20
2019-03-24T07:12:16.661Z,18.10
2019-03-24T07:14:50.701Z,18.10
2019-03-24T07:17:24.643Z,18.40
2019-03-24T07:19:59.010Z,18.70
2019-03-24T07:22:31.726Z,18.90
2019-03-24T07:25:06.137Z,18.90
2019-03-24T07:27:39.380Z,19.00
2019-03-24T07:30:14.164Z,19.10
2019-03-24T07:32:47.779Z,19.30
2019-03-24T07:35:23.739Z,19.40
2019-03-24T07:37:56.492Z,19.40
2019-03-24T07:40:30.851Z,19.50
2019-03-24T07:43:05.229Z,19.60
2019-03-24T07:45:40.606Z,19.60
2019-03-24T07:48:19.304Z,19.80
2019-03-24T07:50:50.065Z,19.90
2019-03-24T07:53:25.628Z,20.10
2019-03-24T07:55:59.345Z,20.10
2019-03-24T07:58:33.871Z,20.20
2019-03-24T08:01:08.433Z,20.30
2019-03-24T08:03:43.285Z,20.20
2019-03-24T08:06:18.161Z,20.00
2019-03-24T08:08:52.587Z,20.10
2019-03-24T08:11:27.014Z,20.10
2019-03-24T08:14:02.188Z,20.20
2019-03-24T08:16:36.589Z,20.20
2019-03-24T08:19:11.251Z,20.00
2019-03-24T08:21:45.803Z,20.20
2019-03-24T08:24:20.530Z,20.10
2019-03-24T08:26:54.986Z,20.10
2019-03-24T08:29:29.981Z,20.00
2019-03-24T08:32:04.111Z,20.00
2019-03-24T08:34:38.270Z,19.90
2019-03-24T08:37:13.259Z,19.80
2019-03-24T08:39:48.597Z,19.90
2019-03-24T08:42:24.982Z,20.00
2019-03-24T08:45:00.489Z,20.10
2019-03-24T08:47:35.972Z,20.20
2019-03-24T08:50:09.621Z,20.40
2019-03-24T08:52:43.867Z,20.50
2019-03-24T08:55:18.891Z,20.30
2019-03-24T08:57:53.964Z,19.90
2019-03-24T09:00:31.652Z,19.80
2019-03-24T09:03:10.106Z,19.90
2019-03-24T09:05:45.073Z,20.10
2019-03-24T09:08:20.859Z,20.20
2019-03-24T09:10:55.504Z,20.10
2019-03-24T09:13:29.609Z,20.10
2019-03-24T09:16:04.584Z,19.80
2019-03-24T09:18:39.355Z,20.00
2019-03-24T09:21:14.341Z,19.80
2019-03-24T09:23:49.767Z,20.10
2019-03-24T09:26:24.167Z,20.40
2019-03-24T09:28:59.366Z,20.40
2019-03-24T09:31:34.534Z,20.50
2019-03-24T09:34:09.196Z,20.50
2019-03-24T09:36:43.676Z,20.30
2019-03-24T09:39:19.140Z,20.10
2019-03-24T09:41:53.963Z,20.30
2019-03-24T09:44:28.281Z,20.60
2019-03-24T09:47:03.120Z,20.50
2019-03-24T09:49:36.609Z,20.20
2019-03-24T09:52:09.485Z,20.40
2019-03-24T09:54:43.712Z,20.50
2019-03-24T09:57:19.442Z,20.50
2019-03-24T09:59:52.577Z,20.40
2019-03-24T10:02:26.058Z,20.50
2019-03-24T10:04:59.874Z,20.30
2019-03-24T10:07:37.869Z,20.40
2019-03-24T10:10:13.891Z,20.50
2019-03-24T10:12:49.106Z,20.70
2019-03-24T10:15:22.775Z,20.60
2019-03-24T10:17:55.709Z,20.70
2019-03-24T10:20:30.048Z,21.00
2019-03-24T10:23:04.330Z,21.00
2019-03-24T10:25:39.183Z,21.10
2019-03-24T10:28:13.752Z,20.90
2019-03-24T10:30:47.731Z,20.70
2019-03-24T10:33:22.157Z,20.30
2019-03-24T10:35:57.419Z,19.80
2019-03-24T10:38:31.736Z,20.10
2019-03-24T10:41:04.762Z,20.50
2019-03-24T10:43:38.056Z,20.70
2019-03-24T10:46:11.684Z,21.00
2019-03-24T10:48:45.934Z,20.50
2019-03-24T10:51:20.699Z,20.40
2019-03-24T10:53:54.209Z,20.70
2019-03-24T10:56:27.757Z,20.90
2019-03-24T10:59:01.348Z,21.30
2019-03-24T11:01:37.133Z,21.50
2019-03-24T11:04:11.558Z,21.70
2019-03-24T11:06:45.216Z,21.80
2019-03-24T11:09:19.583Z,21.80
2019-03-24T11:11:54.154Z,21.80
2019-03-24T11:14:28.840Z,21.70
2019-03-24T11:17:03.353Z,21.70
2019-03-24T11:19:38.406Z,21.70
2019-03-24T11:22:12.154Z,21.90
2019-03-24T11:24:47.300Z,21.90
2019-03-24T11:27:21.689Z,21.60
2019-03-24T11:30:00.315Z,21.90
2019-03-24T11:32:34.767Z,22.20
2019-03-24T11:35:09.325Z,22.40
2019-03-24T11:37:44.237Z,22.90
2019-03-24T11:40:18.748Z,23.00
2019-03-24T11:42:53.135Z,23.10
2019-03-24T11:45:28.045Z,23.30
2019-03-24T11:48:02.438Z,23.40
2019-03-24T11:50:36.948Z,23.90
2019-03-24T11:53:11.390Z,24.20
2019-03-24T11:55:45.752Z,24.50
2019-03-24T11:58:20.519Z,24.70
2019-03-24T12:00:56.787Z,24.80
2019-03-24T12:03:31.208Z,25.10
2019-03-24T12:06:14.423Z,25.70
2019-03-24T12:08:42.117Z,25.80
2019-03-24T12:11:17.428Z,25.80
2019-03-24T12:13:52.186Z,26.00
2019-03-24T12:16:26.577Z,26.20
2019-03-24T12:19:01.364Z,26.10
2019-03-24T12:21:36.582Z,26.00
2019-03-24T12:24:11.186Z,26.10
2019-03-24T12:26:45.906Z,26.30
2019-03-24T12:29:20.714Z,26.60
2019-03-24T12:31:56.239Z,26.80
2019-03-24T12:34:31.151Z,26.30
2019-03-24T12:37:06.796Z,26.00
2019-03-24T12:39:41.960Z,25.90
2019-03-24T12:42:16.810Z,26.20
2019-03-24T12:44:51.375Z,26.50
2019-03-24T12:47:25.946Z,26.50
2019-03-24T12:50:08.911Z,26.60
2019-03-24T12:52:37.105Z,26.70
2019-03-24T12:55:12.293Z,26.50
2019-03-24T12:57:46.534Z,26.50
2019-03-24T13:00:40.973Z,26.90
2019-03-24T13:03:15.231Z,27.00
2019-03-24T13:05:49.661Z,27.10
2019-03-24T13:08:22.944Z,27.10
2019-03-24T13:10:57.672Z,27.50
2019-03-24T13:13:30.863Z,27.90
2019-03-24T13:16:06.008Z,28.00
2019-03-24T13:18:40.738Z,28.00
2019-03-24T13:21:14.737Z,27.80
2019-03-24T13:23:48.853Z,27.60
2019-03-24T13:26:22.263Z,27.50
2019-03-24T13:28:56.105Z,27.60
2019-03-24T13:31:29.044Z,28.30
2019-03-24T13:34:03.386Z,28.50
2019-03-24T13:36:39.023Z,28.90
2019-03-24T13:39:12.855Z,28.90
2019-03-24T13:41:48.378Z,29.10
2019-03-24T13:44:22.210Z,29.50
2019-03-24T13:46:56.405Z,29.80
2019-03-24T13:49:30.566Z,30.00
2019-03-24T13:52:05.463Z,29.80
2019-03-24T13:54:39.767Z,29.80
2019-03-24T13:57:13.180Z,29.60
2019-03-24T13:59:48.064Z,29.90
2019-03-24T14:02:22.858Z,30.00
2019-03-24T14:04:57.813Z,30.00
2019-03-24T14:07:32.742Z,30.10
2019-03-24T14:10:07.473Z,29.90
2019-03-24T14:12:42.822Z,29.90
2019-03-24T14:15:17.468Z,30.00
2019-03-24T14:17:51.421Z,29.90
2019-03-24T14:20:26.462Z,29.70
2019-03-24T14:23:01.122Z,29.50
2019-03-24T14:25:36.107Z,29.70
2019-03-24T14:28:11.051Z,29.50
2019-03-24T14:30:53.102Z,29.70
2019-03-24T14:33:27.657Z,29.80
2019-03-24T14:36:02.348Z,30.00
2019-03-24T14:38:37.507Z,30.10
2019-03-24T14:41:12.277Z,30.20
2019-03-24T14:43:47.181Z,30.30
2019-03-24T14:46:21.856Z,30.20
2019-03-24T14:48:56.973Z,29.90
2019-03-24T14:51:31.113Z,30.00
2019-03-24T14:54:06.022Z,29.90
2019-03-24T14:56:41.383Z,29.70
2019-03-24T14:59:15.371Z,29.50
2019-03-24T15:01:51.659Z,29.50
2019-03-24T15:04:26.171Z,29.40
2019-03-24T15:07:01.223Z,29.10
2019-03-24T15:09:35.840Z,29.20
2019-03-24T15:12:10.776Z,29.60
2019-03-24T15:14:45.210Z,29.90
2019-03-24T15:17:19.800Z,29.90
2019-03-24T15:19:54.690Z,29.90
2019-03-24T15:22:30.587Z,29.80
2019-03-24T15:25:04.974Z,29.50
2019-03-24T15:27:39.147Z,29.40
2019-03-24T15:30:13.794Z,29.30
2019-03-24T15:32:48.459Z,29.40
2019-03-24T15:35:23.241Z,29.40
2019-03-24T15:38:08.056Z,29.50
2019-03-24T15:40:34.413Z,29.50
2019-03-24T15:43:09.635Z,29.20
2019-03-24T15:45:44.232Z,28.90
2019-03-24T15:48:19.127Z,28.50
2019-03-24T15:50:53.669Z,27.90
2019-03-24T15:53:28.811Z,27.60
2019-03-24T15:56:03.613Z,27.30
2019-03-24T15:58:38.439Z,26.90
2019-03-24T16:01:13.271Z,26.70
2019-03-24T16:03:48.303Z,26.70
2019-03-24T16:06:23.240Z,26.60
2019-03-24T16:08:57.812Z,26.40
2019-03-24T16:11:33.031Z,26.20
2019-03-24T16:14:07.513Z,26.10
2019-03-24T16:16:42.644Z,26.10
2019-03-24T16:19:17.596Z,25.80
2019-03-24T16:21:52.271Z,25.60
2019-03-24T16:24:26.367Z,25.50
2019-03-24T16:27:01.580Z,25.40
2019-03-24T16:29:36.609Z,25.40
2019-03-24T16:32:10.895Z,25.30
2019-03-24T16:34:45.666Z,25.30
2019-03-24T16:37:20.104Z,25.20
2019-03-24T16:39:54.488Z,25.00
2019-03-24T16:42:32.020Z,24.90
2019-03-24T16:45:08.335Z,24.90
2019-03-24T16:47:41.476Z,24.80
2019-03-24T16:50:16.662Z,24.80
2019-03-24T16:52:49.780Z,24.70
2019-03-24T16:55:22.978Z,24.70
2019-03-24T16:57:57.535Z,24.60
2019-03-24T17:00:32.688Z,24.50
2019-03-24T17:03:07.569Z,24.60
2019-03-24T17:05:40.743Z,24.50
2019-03-24T17:08:15.280Z,24.60
2019-03-24T17:10:48.789Z,24.60
2019-03-24T17:13:22.390Z,24.50
2019-03-24T17:15:55.179Z,24.40
2019-03-24T17:18:27.900Z,24.40
2019-03-24T17:21:01.247Z,24.40
2019-03-24T17:23:34.543Z,24.50
2019-03-24T17:26:07.937Z,24.40
2019-03-24T17:28:40.694Z,24.20
2019-03-24T17:31:15.630Z,24.10
2019-03-24T17:33:50.713Z,24.00
2019-03-24T17:36:25.596Z,23.90
2019-03-24T17:39:00.257Z,23.90
2019-03-24T17:41:35.382Z,23.80
2019-03-24T17:44:08.911Z,23.70
2019-03-24T17:46:43.259Z,23.70
2019-03-24T17:49:16.913Z,23.70
2019-03-24T17:52:00.404Z,23.70
2019-03-24T17:54:26.742Z,23.60
2019-03-24T17:56:59.516Z,23.30
2019-03-24T17:59:33.521Z,22.90
2019-03-24T18:02:14.242Z,22.70
2019-03-24T18:04:42.280Z,22.70
2019-03-24T18:07:18.188Z,22.70
2019-03-24T18:09:52.817Z,22.90
2019-03-24T18:12:26.569Z,22.90
2019-03-24T18:15:02.691Z,23.00
2019-03-24T18:17:37.340Z,23.20
2019-03-24T18:20:12.135Z,23.10
2019-03-24T18:22:46.737Z,23.10
2019-03-24T18:25:21.746Z,23.00
2019-03-24T18:27:56.393Z,22.90
2019-03-24T18:30:32.477Z,22.70
2019-03-24T18:33:07.286Z,22.70
2019-03-24T18:35:42.335Z,22.80
2019-03-24T18:38:17.133Z,22.80
2019-03-24T18:40:53.000Z,22.90
2019-03-24T18:43:27.093Z,22.90
2019-03-24T18:46:02.149Z,22.90
2019-03-24T18:48:36.771Z,23.00
2019-03-24T18:51:11.403Z,23.10
2019-03-24T18:53:46.006Z,23.10
2019-03-24T18:56:19.562Z,23.20
2019-03-24T18:58:54.584Z,23.20
2019-03-24T19:01:28.394Z,23.20
2019-03-24T19:04:02.108Z,23.20
2019-03-24T19:06:37.289Z,23.10
2019-03-24T19:09:12.469Z,23.10
2019-03-24T19:11:45.646Z,23.10
2019-03-24T19:14:18.514Z,23.20
2019-03-24T19:16:51.931Z,23.20
2019-03-24T19:19:29.363Z,23.20
2019-03-24T19:22:03.394Z,23.30
2019-03-24T19:24:39.495Z,23.30
2019-03-24T19:27:13.470Z,23.40
2019-03-24T19:29:46.726Z,23.40
2019-03-24T19:32:19.389Z,23.40
2019-03-24T19:34:53.762Z,23.40
2019-03-24T19:37:28.150Z,23.40
2019-03-24T19:40:02.831Z,23.40
2019-03-24T19:42:36.251Z,23.40
2019-03-24T19:45:10.220Z,23.50
2019-03-24T19:47:43.500Z,23.60
2019-03-24T19:50:20.265Z,23.40
2019-03-24T19:52:54.016Z,23.50
2019-03-24T19:55:27.172Z,23.40
2019-03-24T19:58:00.395Z,23.30
2019-03-24T20:00:33.549Z,23.20
2019-03-24T20:03:09.173Z,23.10
2019-03-24T20:05:43.249Z,23.00
2019-03-24T20:08:16.609Z,22.90
2019-03-24T20:11:17.241Z,22.90
2019-03-24T20:13:50.985Z,23.00
2019-03-24T20:16:25.427Z,22.80
2019-03-24T20:19:00.901Z,22.80
2019-03-24T20:21:34.019Z,22.50
2019-03-24T20:24:06.830Z,22.40
2019-03-24T20:26:41.668Z,22.60
2019-03-24T20:29:15.223Z,22.70
2019-03-24T20:31:50.562Z,22.80
2019-03-24T20:34:23.669Z,22.90
2019-03-24T20:36:58.037Z,22.90
2019-03-24T20:39:31.341Z,22.90
2019-03-24T20:42:05.799Z,22.80
2019-03-24T20:44:39.425Z,22.60
2019-03-24T20:47:13.865Z,22.40
2019-03-24T20:49:48.030Z,22.40
2019-03-24T20:52:21.219Z,22.40
2019-03-24T20:54:55.183Z,22.50
2019-03-24T20:57:29.115Z,22.60
2019-03-24T21:00:06.399Z,22.60
2019-03-24T21:02:40.471Z,22.60
2019-03-24T21:05:13.724Z,22.70
2019-03-24T21:07:46.874Z,22.60
2019-03-24T21:10:20.627Z,22.50
2019-03-24T21:12:54.767Z,22.40
2019-03-24T21:15:28.582Z,22.30
2019-03-24T21:18:03.485Z,22.30
2019-03-24T21:20:38.671Z,22.30
2019-03-24T21:23:11.475Z,22.30
2019-03-24T21:25:44.647Z,22.40
2019-03-24T21:28:17.876Z,22.30
2019-03-24T21:30:51.303Z,22.40
2019-03-24T21:33:25.854Z,22.30
2019-03-24T21:35:58.983Z,22.40
2019-03-24T21:38:33.444Z,22.30
2019-03-24T21:41:07.698Z,22.30
2019-03-24T21:43:40.522Z,22.40
2019-03-24T21:46:13.275Z,22.40
2019-03-24T21:48:48.161Z,22.50
2019-03-24T21:51:21.356Z,22.50
2019-03-24T21:53:54.564Z,22.60
2019-03-24T21:56:27.771Z,22.60
2019-03-24T21:59:01.286Z,22.50
2019-03-24T22:01:34.992Z,22.40
2019-03-24T22:04:07.815Z,22.30
2019-03-24T22:06:41.191Z,22.20
2019-03-24T22:09:15.562Z,22.10
2019-03-24T22:11:51.045Z,22.10
2019-03-24T22:14:25.576Z,22.10
2019-03-24T22:16:59.417Z,22.00
2019-03-24T22:19:33.557Z,22.00
2019-03-24T22:22:07.013Z,22.10
2019-03-24T22:24:40.740Z,22.20
2019-03-24T22:27:14.572Z,22.10
2019-03-24T22:29:48.933Z,22.20
2019-03-24T22:32:22.712Z,22.20
2019-03-24T22:34:56.496Z,22.10
2019-03-24T22:37:29.696Z,22.00
2019-03-24T22:40:02.885Z,22.10
2019-03-24T22:42:36.553Z,22.10
2019-03-24T22:45:10.115Z,22.20
2019-03-24T22:47:43.333Z,22.10
2019-03-24T22:50:16.924Z,22.10
2019-03-24T22:52:51.725Z,22.20
2019-03-24T22:55:24.602Z,22.20
2019-03-24T22:57:58.315Z,22.20
2019-03-24T23:01:05.989Z,22.20
2019-03-24T23:03:41.278Z,21.90
2019-03-24T23:06:14.995Z,21.90
2019-03-24T23:08:49.325Z,21.80
2019-03-24T23:11:23.728Z,21.70
2019-03-24T23:13:56.595Z,21.50
2019-03-24T23:16:31.480Z,21.40
2019-03-24T23:19:05.418Z,21.30
2019-03-24T23:21:38.802Z,21.30
2019-03-24T23:24:15.601Z,21.30
2019-03-24T23:26:48.759Z,21.20
2019-03-24T23:29:21.591Z,21.00
2019-03-24T23:31:54.746Z,20.90
2019-03-24T23:34:28.124Z,21.00
2019-03-24T23:37:07.113Z,21.20
2019-03-24T23:39:40.604Z,21.10
2019-03-24T23:42:13.361Z,21.20
2019-03-24T23:44:47.548Z,21.30
2019-03-24T23:47:20.747Z,20.80
2019-03-24T23:49:54.031Z,20.50
2019-03-24T23:52:29.088Z,20.30
2019-03-24T23:55:02.970Z,20.20
2019-03-24T23:57:36.704Z,20.30
